Antonello — IKVS — position and weather

sailwx.info

Track history (hours):
 
Tides and Currents Weather Stations Pressure Air Temp Water Temp Dewpoint Dewpoint Depression Visibility Wind Speed Wind Dir Waves Ship Positions

Antonello

Last reported at 2017-Jul-23 12:30 UTC. Time now 2017-Jul-23 12:33 UTC.
Position N 38°28' E 015°49'.

Length 70 m; draft 4.2 m.

Type: Ship. MMSI: 247422000.

Date/timePositionNaut miles runAvg speedWind from/ knotsBaromVisibWave heightAir tempDewpointWater temp
2017-Jul-23 12:30N 38°28' E 015°49'1 2.6
2017-Jul-23 12:00N 38°28' E 015°47'0 0.0
2017-Jul-23 11:30N 38°28' E 015°47'0 0.0
2017-Jul-23 11:00N 38°28' E 015°47'2 4.4
2017-Jul-23 10:30N 38°28' E 015°45'4 8.8
2017-Jul-23 10:00N 38°28' E 015°39'4 8.8
2017-Jul-23 09:30N 38°28' E 015°33'4 8.3
2017-Jul-23 09:00N 38°29' E 015°28'4 8.1
2017-Jul-23 08:30N 38°30' E 015°23'4 8.8
2017-Jul-23 08:00N 38°30' E 015°17'4 8.7
2017-Jul-23 07:30N 38°31' E 015°12'8 8.7
2017-Jul-23 06:33N 38°32' E 015°02'2 8.6
2017-Jul-23 06:17N 38°32' E 014°59'2 8.3
2017-Jul-23 06:00N 38°32' E 014°56'4 8.1
2017-Jul-23 05:30N 38°31' E 014°51'2 0.1
2017-Jul-22 17:52N 38°33' E 014°50'0 0.0
2017-Jul-22 17:30N 38°33' E 014°50'0 0.0
2017-Jul-22 17:00N 38°33' E 014°50'0 0.0
2017-Jul-22 16:29N 38°33' E 014°50'0 0.0
2017-Jul-22 16:00N 38°33' E 014°50'0 0.0
2017-Jul-22 15:30N 38°33' E 014°50'0 0.0
2017-Jul-22 15:00N 38°33' E 014°50'0 0.0
2017-Jul-22 14:00N 38°33' E 014°50'0 0.0
2017-Jul-22 13:30N 38°33' E 014°50'0 0.0
2017-Jul-22 13:00N 38°33' E 014°50'0 0.0
2017-Jul-22 12:30N 38°33' E 014°50'0 0.0
2017-Jul-22 12:00N 38°33' E 014°50'0 0.0
2017-Jul-22 11:30N 38°33' E 014°50'3 5.5
2017-Jul-22 11:00N 38°32' E 014°53'4 8.1
2017-Jul-22 10:30N 38°32' E 014°58'4 8.2
2017-Jul-22 10:00N 38°32' E 015°03'4 8.1
2017-Jul-22 09:30N 38°31' E 015°08'4 7.9
2017-Jul-22 09:00N 38°31' E 015°13'4 7.8
2017-Jul-22 08:30N 38°30' E 015°18'4 7.9
2017-Jul-22 08:00N 38°30' E 015°23'4 8.0
2017-Jul-22 07:30N 38°29' E 015°28'4 8.2
2017-Jul-22 07:00N 38°29' E 015°34'4 8.1
2017-Jul-22 06:31N 38°28' E 015°39'4 7.9
2017-Jul-22 05:59N 38°28' E 015°44'4 8.2
2017-Jul-22 05:31N 38°27' E 015°49'4 7.8
2017-Jul-22 05:00N 38°27' E 015°54'0 0.0
2017-Jul-21 21:20N 38°27' E 015°54'0 0.1
2017-Jul-21 21:00N 38°27' E 015°54'2 3.9
2017-Jul-21 20:27N 38°27' E 015°52'1 1.4
2017-Jul-21 19:50N 38°28' E 015°52'3 8.3
2017-Jul-21 19:30N 38°31' E 015°51'2 3.2
2017-Jul-21 18:53N 38°32' E 015°48'0 0.0
2017-Jul-21 18:30N 38°32' E 015°48'0 0.0
2017-Jul-21 18:00N 38°32' E 015°48'0 0.0
2017-Jul-21 17:30N 38°32' E 015°48'0 0.0
2017-Jul-21 17:00N 38°32' E 015°48'1 1.5
2017-Jul-21 16:30N 38°31' E 015°49'4 7.9
2017-Jul-21 16:00N 38°28' E 015°51'2 3.6
2017-Jul-21 15:24N 38°29' E 015°49'0 0.0
2017-Jul-21 15:00N 38°29' E 015°49'0 0.0
2017-Jul-21 14:30N 38°29' E 015°49'0 0.0
2017-Jul-21 14:00N 38°29' E 015°49'0 0.0
2017-Jul-21 13:30N 38°29' E 015°49'0 0.0
2017-Jul-21 13:00N 38°29' E 015°49'0 0.0
2017-Jul-21 12:30N 38°29' E 015°49'0 0.0
2017-Jul-21 12:00N 38°29' E 015°49'1 2.0
2017-Jul-21 11:30N 38°29' E 015°48'0 0.0
2017-Jul-21 11:00N 38°29' E 015°48'0 0.0
2017-Jul-21 10:30N 38°29' E 015°48'3 5.2
2017-Jul-21 10:00N 38°29' E 015°44'4 8.6
2017-Jul-21 09:30N 38°29' E 015°39'4 8.8
2017-Jul-21 09:00N 38°30' E 015°33'5 9.0
2017-Jul-21 08:30N 38°30' E 015°28'4 8.9
2017-Jul-21 08:00N 38°30' E 015°22'5 9.0
2017-Jul-21 07:30N 38°31' E 015°16'5 9.2
2017-Jul-21 06:59N 38°31' E 015°10'5 9.0
2017-Jul-21 06:24N 38°32' E 015°04'4 8.8
2017-Jul-21 06:00N 38°32' E 014°59'1 0.0
2017-Jul-20 05:32N 38°32' E 014°58'1 8.0
2017-Jul-20 05:26N 38°32' E 014°59'4 8.0
2017-Jul-20 04:58N 38°31' E 015°03'4 7.7
2017-Jul-20 04:30N 38°30' E 015°08'4 7.8
2017-Jul-20 04:00N 38°30' E 015°13'4 7.8
2017-Jul-20 03:30N 38°30' E 015°18'4 7.8
2017-Jul-20 02:58N 38°29' E 015°23'4 7.9
2017-Jul-20 02:28N 38°29' E 015°28'4 7.8
2017-Jul-20 01:58N 38°29' E 015°33'6 7.9
2017-Jul-20 01:14N 38°29' E 015°41'3 8.3
2017-Jul-20 00:49N 38°28' E 015°45'7 1.0
2017-Jul-19 17:18N 38°27' E 015°54'2 3.8
2017-Jul-19 16:51N 38°27' E 015°52'3 7.1
2017-Jul-19 16:22N 38°29' E 015°49'2 4.9
2017-Jul-19 16:00N 38°31' E 015°50'0 0.0
2017-Jul-19 15:30N 38°31' E 015°50'0 0.0
2017-Jul-19 14:44N 38°31' E 015°50'0 0.8
2017-Jul-19 14:30N 38°31' E 015°50'1 1.7
2017-Jul-19 14:00N 38°32' E 015°50'0 0.3
2017-Jul-19 13:30N 38°32' E 015°50'3 5.2
2017-Jul-19 13:00N 38°31' E 015°53'1 2.9
2017-Jul-19 12:30N 38°31' E 015°52'0 0.0
2017-Jul-19 12:00N 38°31' E 015°52'0 0.0
2017-Jul-19 11:30N 38°31' E 015°52'1 1.5
2017-Jul-19 11:00N 38°31' E 015°52'1 2.7
2017-Jul-19 10:30N 38°31' E 015°51'0 0.0
2017-Jul-19 09:48N 38°31' E 015°51'0 0.0
2017-Jul-19 07:45N 38°31' E 015°51'22 0.9
2017-Jul-18 07:15N 38°41' E 015°26'2 7.2
2017-Jul-18 06:59N 38°39' E 015°28'22 1.1
2017-Jul-17 11:26N 38°26' E 015°49'1 2.5
2017-Jul-17 11:00N 38°25' E 015°49'1 2.2
2017-Jul-17 10:31N 38°24' E 015°48'2 4.2
2017-Jul-17 10:00N 38°25' E 015°45'4 7.4
2017-Jul-17 09:30N 38°26' E 015°41'4 8.1
2017-Jul-17 09:00N 38°27' E 015°36'4 8.1
2017-Jul-17 08:30N 38°28' E 015°31'4 8.4
2017-Jul-17 08:00N 38°30' E 015°26'4 8.3
2017-Jul-17 07:30N 38°31' E 015°21'4 8.2
2017-Jul-17 07:00N 38°33' E 015°16'4 8.1
2017-Jul-17 06:30N 38°34' E 015°11'4 7.8
2017-Jul-17 05:59N 38°36' E 015°07'4 7.4
2017-Jul-17 05:26N 38°37' E 015°02'1 3.3
2017-Jul-17 05:00N 38°37' E 014°60'3 6.1
2017-Jul-17 04:30N 38°35' E 014°58'113 3.0
2017-Jul-15 15:10N 40°24' E 014°20'11 7.8
2017-Jul-15 13:45N 40°35' E 014°18'2 7.7
2017-Jul-15 13:30N 40°36' E 014°18'4 7.6
2017-Jul-15 13:00N 40°40' E 014°18'4 7.9
2017-Jul-15 12:30N 40°44' E 014°17'4 7.8
2017-Jul-15 11:59N 40°48' E 014°17'2 0.2
2017-Jul-14 21:18N 40°51' E 014°16'0 0.7
2017-Jul-14 20:51N 40°50' E 014°16'2 7.2
2017-Jul-14 20:30N 40°48' E 014°18'1 0.8
2017-Jul-14 19:50N 40°48' E 014°17'0 1.2
2017-Jul-14 19:30N 40°48' E 014°18'0 0.9
2017-Jul-14 19:00N 40°48' E 014°18'0 0.0
2017-Jul-14 18:30N 40°48' E 014°18'2 4.2
2017-Jul-14 18:00N 40°46' E 014°18'4 8.4
2017-Jul-14 17:30N 40°42' E 014°18'4 8.4
2017-Jul-14 17:00N 40°38' E 014°18'107 8.3
2017-Jul-14 04:09N 38°54' E 014°48'2 8.7
2017-Jul-14 03:53N 38°51' E 014°49'7 8.7
2017-Jul-14 03:08N 38°45' E 014°51'2 8.6
2017-Jul-14 02:56N 38°43' E 014°51'4 8.6
2017-Jul-14 02:29N 38°39' E 014°53'4 8.5
2017-Jul-14 02:00N 38°35' E 014°54'2 0.2
2017-Jul-13 14:53N 38°34' E 014°53'0 0.3
2017-Jul-13 14:26N 38°34' E 014°53'3 7.1
2017-Jul-13 14:00N 38°35' E 014°56'4 7.5
2017-Jul-13 13:30N 38°34' E 015°01'4 7.4
2017-Jul-13 13:00N 38°33' E 015°06'4 7.6
2017-Jul-13 12:30N 38°33' E 015°10'  
Track history (hours):
 
Tides and Currents Weather Stations Pressure Air Temp Water Temp Dewpoint Dewpoint Depression Visibility Wind Speed Wind Dir Waves Ship Positions

Antonello

Last reported at 2017-Jul-23 12:30 UTC. Time now 2017-Jul-23 12:33 UTC.
Position N 38°28' E 015°49'.

Length 70 m; draft 4.2 m.

Type: Ship. MMSI: 247422000.

Date/timePositionNaut miles runAvg speedWind from/ knotsBaromVisibWave heightAir tempDewpointWater temp
2017-Jul-23 12:30N 38°28' E 015°49'1 2.6
2017-Jul-23 12:00N 38°28' E 015°47'0 0.0
2017-Jul-23 11:30N 38°28' E 015°47'0 0.0
2017-Jul-23 11:00N 38°28' E 015°47'2 4.4
2017-Jul-23 10:30N 38°28' E 015°45'4 8.8
2017-Jul-23 10:00N 38°28' E 015°39'4 8.8
2017-Jul-23 09:30N 38°28' E 015°33'4 8.3
2017-Jul-23 09:00N 38°29' E 015°28'4 8.1
2017-Jul-23 08:30N 38°30' E 015°23'4 8.8
2017-Jul-23 08:00N 38°30' E 015°17'4 8.7
2017-Jul-23 07:30N 38°31' E 015°12'8 8.7
2017-Jul-23 06:33N 38°32' E 015°02'2 8.6
2017-Jul-23 06:17N 38°32' E 014°59'2 8.3
2017-Jul-23 06:00N 38°32' E 014°56'4 8.1
2017-Jul-23 05:30N 38°31' E 014°51'2 0.1
2017-Jul-22 17:52N 38°33' E 014°50'0 0.0
2017-Jul-22 17:30N 38°33' E 014°50'0 0.0
2017-Jul-22 17:00N 38°33' E 014°50'0 0.0
2017-Jul-22 16:29N 38°33' E 014°50'0 0.0
2017-Jul-22 16:00N 38°33' E 014°50'0 0.0
2017-Jul-22 15:30N 38°33' E 014°50'0 0.0
2017-Jul-22 15:00N 38°33' E 014°50'0 0.0
2017-Jul-22 14:00N 38°33' E 014°50'0 0.0
2017-Jul-22 13:30N 38°33' E 014°50'0 0.0
2017-Jul-22 13:00N 38°33' E 014°50'0 0.0
2017-Jul-22 12:30N 38°33' E 014°50'0 0.0
2017-Jul-22 12:00N 38°33' E 014°50'0 0.0
2017-Jul-22 11:30N 38°33' E 014°50'3 5.5
2017-Jul-22 11:00N 38°32' E 014°53'4 8.1
2017-Jul-22 10:30N 38°32' E 014°58'4 8.2
2017-Jul-22 10:00N 38°32' E 015°03'4 8.1
2017-Jul-22 09:30N 38°31' E 015°08'4 7.9
2017-Jul-22 09:00N 38°31' E 015°13'4 7.8
2017-Jul-22 08:30N 38°30' E 015°18'4 7.9
2017-Jul-22 08:00N 38°30' E 015°23'4 8.0
2017-Jul-22 07:30N 38°29' E 015°28'4 8.2
2017-Jul-22 07:00N 38°29' E 015°34'4 8.1
2017-Jul-22 06:31N 38°28' E 015°39'4 7.9
2017-Jul-22 05:59N 38°28' E 015°44'4 8.2
2017-Jul-22 05:31N 38°27' E 015°49'4 7.8
2017-Jul-22 05:00N 38°27' E 015°54'0 0.0
2017-Jul-21 21:20N 38°27' E 015°54'0 0.1
2017-Jul-21 21:00N 38°27' E 015°54'2 3.9
2017-Jul-21 20:27N 38°27' E 015°52'1 1.4
2017-Jul-21 19:50N 38°28' E 015°52'3 8.3
2017-Jul-21 19:30N 38°31' E 015°51'2 3.2
2017-Jul-21 18:53N 38°32' E 015°48'0 0.0
2017-Jul-21 18:30N 38°32' E 015°48'0 0.0
2017-Jul-21 18:00N 38°32' E 015°48'0 0.0
2017-Jul-21 17:30N 38°32' E 015°48'0 0.0
2017-Jul-21 17:00N 38°32' E 015°48'1 1.5
2017-Jul-21 16:30N 38°31' E 015°49'4 7.9
2017-Jul-21 16:00N 38°28' E 015°51'2 3.6
2017-Jul-21 15:24N 38°29' E 015°49'0 0.0
2017-Jul-21 15:00N 38°29' E 015°49'0 0.0
2017-Jul-21 14:30N 38°29' E 015°49'0 0.0
2017-Jul-21 14:00N 38°29' E 015°49'0 0.0
2017-Jul-21 13:30N 38°29' E 015°49'0 0.0
2017-Jul-21 13:00N 38°29' E 015°49'0 0.0
2017-Jul-21 12:30N 38°29' E 015°49'0 0.0
2017-Jul-21 12:00N 38°29' E 015°49'1 2.0
2017-Jul-21 11:30N 38°29' E 015°48'0 0.0
2017-Jul-21 11:00N 38°29' E 015°48'0 0.0
2017-Jul-21 10:30N 38°29' E 015°48'3 5.2
2017-Jul-21 10:00N 38°29' E 015°44'4 8.6
2017-Jul-21 09:30N 38°29' E 015°39'4 8.8
2017-Jul-21 09:00N 38°30' E 015°33'5 9.0
2017-Jul-21 08:30N 38°30' E 015°28'4 8.9
2017-Jul-21 08:00N 38°30' E 015°22'5 9.0
2017-Jul-21 07:30N 38°31' E 015°16'5 9.2
2017-Jul-21 06:59N 38°31' E 015°10'5 9.0
2017-Jul-21 06:24N 38°32' E 015°04'4 8.8
2017-Jul-21 06:00N 38°32' E 014°59'1 0.0
2017-Jul-20 05:32N 38°32' E 014°58'1 8.0
2017-Jul-20 05:26N 38°32' E 014°59'4 8.0
2017-Jul-20 04:58N 38°31' E 015°03'4 7.7
2017-Jul-20 04:30N 38°30' E 015°08'4 7.8
2017-Jul-20 04:00N 38°30' E 015°13'4 7.8
2017-Jul-20 03:30N 38°30' E 015°18'4 7.8
2017-Jul-20 02:58N 38°29' E 015°23'4 7.9
2017-Jul-20 02:28N 38°29' E 015°28'4 7.8
2017-Jul-20 01:58N 38°29' E 015°33'6 7.9
2017-Jul-20 01:14N 38°29' E 015°41'3 8.3
2017-Jul-20 00:49N 38°28' E 015°45'7 1.0
2017-Jul-19 17:18N 38°27' E 015°54'2 3.8
2017-Jul-19 16:51N 38°27' E 015°52'3 7.1
2017-Jul-19 16:22N 38°29' E 015°49'2 4.9
2017-Jul-19 16:00N 38°31' E 015°50'0 0.0
2017-Jul-19 15:30N 38°31' E 015°50'0 0.0
2017-Jul-19 14:44N 38°31' E 015°50'0 0.8
2017-Jul-19 14:30N 38°31' E 015°50'1 1.7
2017-Jul-19 14:00N 38°32' E 015°50'0 0.3
2017-Jul-19 13:30N 38°32' E 015°50'3 5.2
2017-Jul-19 13:00N 38°31' E 015°53'1 2.9
2017-Jul-19 12:30N 38°31' E 015°52'0 0.0
2017-Jul-19 12:00N 38°31' E 015°52'0 0.0
2017-Jul-19 11:30N 38°31' E 015°52'1 1.5
2017-Jul-19 11:00N 38°31' E 015°52'1 2.7
2017-Jul-19 10:30N 38°31' E 015°51'0 0.0
2017-Jul-19 09:48N 38°31' E 015°51'0 0.0
2017-Jul-19 07:45N 38°31' E 015°51'22 0.9
2017-Jul-18 07:15N 38°41' E 015°26'2 7.2
2017-Jul-18 06:59N 38°39' E 015°28'22 1.1
2017-Jul-17 11:26N 38°26' E 015°49'1 2.5
2017-Jul-17 11:00N 38°25' E 015°49'1 2.2
2017-Jul-17 10:31N 38°24' E 015°48'2 4.2
2017-Jul-17 10:00N 38°25' E 015°45'4 7.4
2017-Jul-17 09:30N 38°26' E 015°41'4 8.1
2017-Jul-17 09:00N 38°27' E 015°36'4 8.1
2017-Jul-17 08:30N 38°28' E 015°31'4 8.4
2017-Jul-17 08:00N 38°30' E 015°26'4 8.3
2017-Jul-17 07:30N 38°31' E 015°21'4 8.2
2017-Jul-17 07:00N 38°33' E 015°16'4 8.1
2017-Jul-17 06:30N 38°34' E 015°11'4 7.8
2017-Jul-17 05:59N 38°36' E 015°07'4 7.4
2017-Jul-17 05:26N 38°37' E 015°02'1 3.3
2017-Jul-17 05:00N 38°37' E 014°60'3 6.1
2017-Jul-17 04:30N 38°35' E 014°58'113 3.0
2017-Jul-15 15:10N 40°24' E 014°20'11 7.8
2017-Jul-15 13:45N 40°35' E 014°18'2 7.7
2017-Jul-15 13:30N 40°36' E 014°18'4 7.6
2017-Jul-15 13:00N 40°40' E 014°18'4 7.9
2017-Jul-15 12:30N 40°44' E 014°17'4 7.8
2017-Jul-15 11:59N 40°48' E 014°17'2 0.2
2017-Jul-14 21:18N 40°51' E 014°16'0 0.7
2017-Jul-14 20:51N 40°50' E 014°16'2 7.2
2017-Jul-14 20:30N 40°48' E 014°18'1 0.8
2017-Jul-14 19:50N 40°48' E 014°17'0 1.2
2017-Jul-14 19:30N 40°48' E 014°18'0 0.9
2017-Jul-14 19:00N 40°48' E 014°18'0 0.0
2017-Jul-14 18:30N 40°48' E 014°18'2 4.2
2017-Jul-14 18:00N 40°46' E 014°18'4 8.4
2017-Jul-14 17:30N 40°42' E 014°18'4 8.4
2017-Jul-14 17:00N 40°38' E 014°18'107 8.3
2017-Jul-14 04:09N 38°54' E 014°48'2 8.7
2017-Jul-14 03:53N 38°51' E 014°49'7 8.7
2017-Jul-14 03:08N 38°45' E 014°51'2 8.6
2017-Jul-14 02:56N 38°43' E 014°51'4 8.6
2017-Jul-14 02:29N 38°39' E 014°53'4 8.5
2017-Jul-14 02:00N 38°35' E 014°54'2 0.2
2017-Jul-13 14:53N 38°34' E 014°53'0 0.3
2017-Jul-13 14:26N 38°34' E 014°53'3 7.1
2017-Jul-13 14:00N 38°35' E 014°56'4 7.5
2017-Jul-13 13:30N 38°34' E 015°01'4 7.4
2017-Jul-13 13:00N 38°33' E 015°06'4 7.6
2017-Jul-13 12:30N 38°33' E 015°10'  

Dump ship's entire track history